sensor_id;sensor_type;location;lat;lon;timestamp;pressure;altitude;pressure_sealevel;temperature;humidity
22653;BME280;11493;43.344;26.226;2022-08-03T00:01:35;99234.25;;;20.65;82.08
22653;BME280;11493;43.344;26.226;2022-08-03T00:04:06;99229.84;;;20.64;82.27
22653;BME280;11493;43.344;26.226;2022-08-03T00:06:33;99234.94;;;20.55;82.43
22653;BME280;11493;43.344;26.226;2022-08-03T00:09:05;99227.28;;;20.48;82.55
22653;BME280;11493;43.344;26.226;2022-08-03T00:11:33;99237.22;;;20.46;82.80
22653;BME280;11493;43.344;26.226;2022-08-03T00:14:00;99246.84;;;20.48;82.81
22653;BME280;11493;43.344;26.226;2022-08-03T00:16:28;99245.25;;;20.47;82.20
22653;BME280;11493;43.344;26.226;2022-08-03T00:18:55;99248.34;;;20.39;82.45
22653;BME280;11493;43.344;26.226;2022-08-03T00:21:22;99244.75;;;20.38;82.77
22653;BME280;11493;43.344;26.226;2022-08-03T00:23:49;99225.78;;;20.24;82.96
22653;BME280;11493;43.344;26.226;2022-08-03T00:26:19;99239.00;;;20.27;83.07
22653;BME280;11493;43.344;26.226;2022-08-03T00:28:48;99233.75;;;20.22;82.94
22653;BME280;11493;43.344;26.226;2022-08-03T00:31:16;99242.56;;;20.24;82.68
22653;BME280;11493;43.344;26.226;2022-08-03T00:33:54;99242.13;;;20.22;82.95
22653;BME280;11493;43.344;26.226;2022-08-03T00:36:25;99236.03;;;20.13;83.37
22653;BME280;11493;43.344;26.226;2022-08-03T00:38:52;99244.50;;;20.20;83.12
22653;BME280;11493;43.344;26.226;2022-08-03T00:41:20;99245.78;;;20.26;82.50
22653;BME280;11493;43.344;26.226;2022-08-03T00:43:47;99246.63;;;20.30;82.06
22653;BME280;11493;43.344;26.226;2022-08-03T00:46:14;99239.41;;;20.29;82.21
22653;BME280;11493;43.344;26.226;2022-08-03T00:48:48;99237.00;;;20.28;81.58
22653;BME280;11493;43.344;26.226;2022-08-03T00:51:17;99237.09;;;20.35;81.87
22653;BME280;11493;43.344;26.226;2022-08-03T00:53:45;99242.28;;;20.37;81.56
22653;BME280;11493;43.344;26.226;2022-08-03T00:56:14;99234.28;;;20.35;81.45
22653;BME280;11493;43.344;26.226;2022-08-03T00:58:43;99245.47;;;20.35;81.08
22653;BME280;11493;43.344;26.226;2022-08-03T01:01:11;99250.38;;;20.42;81.31
22653;BME280;11493;43.344;26.226;2022-08-03T01:03:39;99249.94;;;20.40;81.21
22653;BME280;11493;43.344;26.226;2022-08-03T01:06:19;99233.03;;;20.29;81.82
22653;BME280;11493;43.344;26.226;2022-08-03T01:08:57;99253.03;;;20.34;82.02
22653;BME280;11493;43.344;26.226;2022-08-03T01:11:37;99240.59;;;20.28;82.23
22653;BME280;11493;43.344;26.226;2022-08-03T01:14:33;99235.66;;;20.15;82.62
22653;BME280;11493;43.344;26.226;2022-08-03T01:17:12;99234.38;;;20.09;83.12
22653;BME280;11493;43.344;26.226;2022-08-03T01:19:53;99242.38;;;20.10;83.58
22653;BME280;11493;43.344;26.226;2022-08-03T01:22:47;99236.25;;;19.97;84.49
22653;BME280;11493;43.344;26.226;2022-08-03T01:25:37;99231.00;;;19.92;84.83
22653;BME280;11493;43.344;26.226;2022-08-03T01:31:03;99230.16;;;19.88;85.41
22653;BME280;11493;43.344;26.226;2022-08-03T01:33:38;99237.34;;;19.89;85.51
22653;BME280;11493;43.344;26.226;2022-08-03T01:36:13;99235.78;;;19.92;85.41
22653;BME280;11493;43.344;26.226;2022-08-03T01:38:52;99242.91;;;19.86;85.92
22653;BME280;11493;43.344;26.226;2022-08-03T01:41:24;99244.03;;;19.81;86.28
22653;BME280;11493;43.344;26.226;2022-08-03T01:43:57;99238.81;;;19.80;86.63
22653;BME280;11493;43.344;26.226;2022-08-03T01:46:46;99228.00;;;19.75;87.09
22653;BME280;11493;43.344;26.226;2022-08-03T01:49:16;99240.84;;;19.83;87.50
22653;BME280;11493;43.344;26.226;2022-08-03T01:51:46;99244.06;;;19.85;87.07
22653;BME280;11493;43.344;26.226;2022-08-03T01:54:35;99239.31;;;19.85;87.73
22653;BME280;11493;43.344;26.226;2022-08-03T01:57:03;99250.22;;;19.97;87.14
22653;BME280;11493;43.344;26.226;2022-08-03T01:59:33;99243.00;;;19.93;87.89
22653;BME280;11493;43.344;26.226;2022-08-03T02:02:03;99246.22;;;19.95;88.06
22653;BME280;11493;43.344;26.226;2022-08-03T02:04:53;99243.00;;;19.93;88.18
22653;BME280;11493;43.344;26.226;2022-08-03T02:07:24;99248.72;;;20.07;87.92
22653;BME280;11493;43.344;26.226;2022-08-03T02:09:53;99244.19;;;20.29;85.93
22653;BME280;11493;43.344;26.226;2022-08-03T02:12:23;99242.81;;;20.46;84.41
22653;BME280;11493;43.344;26.226;2022-08-03T02:15:11;99246.19;;;20.62;83.05
22653;BME280;11493;43.344;26.226;2022-08-03T02:17:43;99244.59;;;20.61;81.85
22653;BME280;11493;43.344;26.226;2022-08-03T02:20:12;99245.78;;;20.60;81.31
22653;BME280;11493;43.344;26.226;2022-08-03T02:22:41;99254.03;;;20.49;81.71
22653;BME280;11493;43.344;26.226;2022-08-03T02:25:10;99249.97;;;20.43;81.95
22653;BME280;11493;43.344;26.226;2022-08-03T02:27:58;99252.88;;;20.20;83.29
22653;BME280;11493;43.344;26.226;2022-08-03T02:30:32;99249.16;;;20.09;84.30
22653;BME280;11493;43.344;26.226;2022-08-03T02:33:07;99245.53;;;20.05;84.58
22653;BME280;11493;43.344;26.226;2022-08-03T02:35:38;99248.38;;;20.12;84.28
22653;BME280;11493;43.344;26.226;2022-08-03T02:38:09;99256.78;;;20.12;83.65
22653;BME280;11493;43.344;26.226;2022-08-03T02:40:39;99253.88;;;20.01;84.22
22653;BME280;11493;43.344;26.226;2022-08-03T02:43:12;99258.22;;;19.99;84.69
22653;BME280;11493;43.344;26.226;2022-08-03T02:45:45;99246.63;;;19.97;84.72
22653;BME280;11493;43.344;26.226;2022-08-03T02:48:20;99258.22;;;19.99;84.64
22653;BME280;11493;43.344;26.226;2022-08-03T02:50:52;99248.53;;;19.89;85.29
22653;BME280;11493;43.344;26.226;2022-08-03T02:53:21;99252.88;;;19.87;85.59
22653;BME280;11493;43.344;26.226;2022-08-03T02:55:50;99254.88;;;19.86;86.22
22653;BME280;11493;43.344;26.226;2022-08-03T02:58:19;99250.75;;;19.77;86.74
22653;BME280;11493;43.344;26.226;2022-08-03T03:00:50;99253.97;;;19.79;86.75
22653;BME280;11493;43.344;26.226;2022-08-03T03:03:18;99260.34;;;19.79;86.95
22653;BME280;11493;43.344;26.226;2022-08-03T03:05:48;99252.34;;;19.78;87.22
22653;BME280;11493;43.344;26.226;2022-08-03T03:08:23;99248.72;;;19.74;87.30
22653;BME280;11493;43.344;26.226;2022-08-03T03:10:58;99177.97;;;19.36;87.66
22653;BME280;11493;43.344;26.226;2022-08-03T03:13:27;99259.56;;;19.79;87.61
22653;BME280;11493;43.344;26.226;2022-08-03T03:15:56;99263.63;;;19.85;87.37
22653;BME280;11493;43.344;26.226;2022-08-03T03:18:26;99255.53;;;19.76;87.76
22653;BME280;11493;43.344;26.226;2022-08-03T03:20:55;99258.75;;;19.78;88.09
22653;BME280;11493;43.344;26.226;2022-08-03T03:23:24;99266.75;;;19.80;87.71
22653;BME280;11493;43.344;26.226;2022-08-03T03:25:53;99262.34;;;19.79;88.33
22653;BME280;11493;43.344;26.226;2022-08-03T03:28:23;99260.31;;;19.76;88.03
22653;BME280;11493;43.344;26.226;2022-08-03T03:30:50;99272.00;;;19.85;87.94
22653;BME280;11493;43.344;26.226;2022-08-03T03:33:20;99283.38;;;19.99;87.14
22653;BME280;11493;43.344;26.226;2022-08-03T03:35:49;99278.97;;;19.98;86.99
22653;BME280;11493;43.344;26.226;2022-08-03T03:38:18;99277.34;;;19.97;86.83
22653;BME280;11493;43.344;26.226;2022-08-03T03:40:45;99263.72;;;19.92;87.16
22653;BME280;11493;43.344;26.226;2022-08-03T03:43:13;99282.94;;;19.97;86.75
22653;BME280;11493;43.344;26.226;2022-08-03T03:45:42;99283.59;;;19.87;86.70
22653;BME280;11493;43.344;26.226;2022-08-03T03:48:09;99290.03;;;19.91;87.17
22653;BME280;11493;43.344;26.226;2022-08-03T03:50:37;99278.97;;;19.98;86.56
22653;BME280;11493;43.344;26.226;2022-08-03T03:53:08;99262.00;;;19.84;86.57
22653;BME280;11493;43.344;26.226;2022-08-03T03:55:37;99288.09;;;19.95;86.19
22653;BME280;11493;43.344;26.226;2022-08-03T03:58:24;99278.00;;;19.87;86.20
22653;BME280;11493;43.344;26.226;2022-08-03T04:00:51;99289.72;;;19.96;85.74
22653;BME280;11493;43.344;26.226;2022-08-03T04:03:20;99295.72;;;19.98;85.61
22653;BME280;11493;43.344;26.226;2022-08-03T04:05:47;99291.13;;;20.16;84.82
22653;BME280;11493;43.344;26.226;2022-08-03T04:08:33;99294.41;;;20.22;84.62
22653;BME280;11493;43.344;26.226;2022-08-03T04:11:26;99293.97;;;20.20;84.10
22653;BME280;11493;43.344;26.226;2022-08-03T04:14:01;99305.63;;;20.25;84.63
22653;BME280;11493;43.344;26.226;2022-08-03T04:16:32;99302.50;;;20.30;84.54
22653;BME280;11493;43.344;26.226;2022-08-03T04:19:05;99291.66;;;20.25;84.65
22653;BME280;11493;43.344;26.226;2022-08-03T04:21:37;99297.13;;;20.45;84.03
22653;BME280;11493;43.344;26.226;2022-08-03T04:24:08;99306.84;;;20.58;83.66
22653;BME280;11493;43.344;26.226;2022-08-03T04:26:39;99303.28;;;20.61;83.52
22653;BME280;11493;43.344;26.226;2022-08-03T04:29:09;99299.00;;;20.71;83.11
22653;BME280;11493;43.344;26.226;2022-08-03T04:31:38;99299.81;;;20.71;82.97
22653;BME280;11493;43.344;26.226;2022-08-03T04:34:07;99306.72;;;20.84;82.57
22653;BME280;11493;43.344;26.226;2022-08-03T04:36:37;99306.44;;;20.96;82.13
22653;BME280;11493;43.344;26.226;2022-08-03T04:39:09;99298.06;;;21.00;81.33
22653;BME280;11493;43.344;26.226;2022-08-03T04:41:38;99300.19;;;21.14;81.01
22653;BME280;11493;43.344;26.226;2022-08-03T04:44:28;99290.59;;;21.11;80.45
22653;BME280;11493;43.344;26.226;2022-08-03T04:46:56;99310.72;;;21.24;80.90
22653;BME280;11493;43.344;26.226;2022-08-03T04:49:25;99307.56;;;21.29;80.70
22653;BME280;11493;43.344;26.226;2022-08-03T04:51:53;99320.09;;;21.46;80.17
22653;BME280;11493;43.344;26.226;2022-08-03T04:54:20;99297.72;;;21.49;79.48
22653;BME280;11493;43.344;26.226;2022-08-03T04:56:48;99309.03;;;21.67;79.24
22653;BME280;11493;43.344;26.226;2022-08-03T04:59:15;99305.91;;;21.79;78.69
22653;BME280;11493;43.344;26.226;2022-08-03T05:01:43;99315.63;;;21.96;78.77
22653;BME280;11493;43.344;26.226;2022-08-03T05:04:11;99312.09;;;22.06;78.41
22653;BME280;11493;43.344;26.226;2022-08-03T05:06:38;99318.59;;;22.21;78.20
22653;BME280;11493;43.344;26.226;2022-08-03T05:09:20;99320.63;;;22.35;77.57
22653;BME280;11493;43.344;26.226;2022-08-03T05:12:09;99332.31;;;22.51;76.84
22653;BME280;11493;43.344;26.226;2022-08-03T05:14:37;99325.97;;;22.68;76.02
22653;BME280;11493;43.344;26.226;2022-08-03T05:17:05;99328.47;;;22.87;74.91
22653;BME280;11493;43.344;26.226;2022-08-03T05:19:34;99322.88;;;23.02;74.14
22653;BME280;11493;43.344;26.226;2022-08-03T05:22:02;99324.88;;;23.15;73.57
22653;BME280;11493;43.344;26.226;2022-08-03T05:24:29;99328.91;;;23.28;72.86
22653;BME280;11493;43.344;26.226;2022-08-03T05:26:57;99341.34;;;23.38;72.93
22653;BME280;11493;43.344;26.226;2022-08-03T05:29:25;99334.91;;;23.48;71.89
22653;BME280;11493;43.344;26.226;2022-08-03T05:31:56;99337.34;;;23.64;71.13
22653;BME280;11493;43.344;26.226;2022-08-03T05:34:23;99336.53;;;23.74;71.10
22653;BME280;11493;43.344;26.226;2022-08-03T05:36:51;99339.31;;;23.85;70.29
22653;BME280;11493;43.344;26.226;2022-08-03T05:39:18;99327.69;;;23.79;70.78
22653;BME280;11493;43.344;26.226;2022-08-03T05:41:46;99344.91;;;23.92;71.11
22653;BME280;11493;43.344;26.226;2022-08-03T05:44:16;99337.28;;;23.89;69.77
22653;BME280;11493;43.344;26.226;2022-08-03T05:46:43;99328.47;;;23.87;69.24
22653;BME280;11493;43.344;26.226;2022-08-03T05:49:11;99333.25;;;24.01;68.98
22653;BME280;11493;43.344;26.226;2022-08-03T05:51:39;99345.69;;;24.14;68.43
22653;BME280;11493;43.344;26.226;2022-08-03T05:54:07;99349.28;;;24.21;68.15
22653;BME280;11493;43.344;26.226;2022-08-03T05:56:35;99353.28;;;24.35;67.05
22653;BME280;11493;43.344;26.226;2022-08-03T05:59:03;99349.56;;;24.52;65.66
22653;BME280;11493;43.344;26.226;2022-08-03T06:01:51;99350.75;;;24.58;65.48
22653;BME280;11493;43.344;26.226;2022-08-03T06:04:19;99347.53;;;24.63;65.16
22653;BME280;11493;43.344;26.226;2022-08-03T06:06:46;99353.09;;;24.74;64.54
22653;BME280;11493;43.344;26.226;2022-08-03T06:09:15;99361.09;;;24.82;62.50
22653;BME280;11493;43.344;26.226;2022-08-03T06:11:43;99356.66;;;24.88;61.78
22653;BME280;11493;43.344;26.226;2022-08-03T06:14:11;99346.19;;;24.96;60.13
22653;BME280;11493;43.344;26.226;2022-08-03T06:16:39;99360.16;;;25.10;59.89
22653;BME280;11493;43.344;26.226;2022-08-03T06:19:06;99358.09;;;25.18;59.52
22653;BME280;11493;43.344;26.226;2022-08-03T06:21:34;99352.03;;;25.23;59.35
22653;BME280;11493;43.344;26.226;2022-08-03T06:24:05;99360.09;;;25.21;58.63
22653;BME280;11493;43.344;26.226;2022-08-03T06:26:33;99347.00;;;25.48;57.11
22653;BME280;11493;43.344;26.226;2022-08-03T06:29:01;99345.31;;;25.58;57.80
22653;BME280;11493;43.344;26.226;2022-08-03T06:31:30;99352.88;;;25.72;56.88
22653;BME280;11493;43.344;26.226;2022-08-03T06:34:01;99346.41;;;25.75;56.09
22653;BME280;11493;43.344;26.226;2022-08-03T06:36:49;99346.25;;;25.89;55.59
22653;BME280;11493;43.344;26.226;2022-08-03T06:39:19;99342.91;;;26.01;55.26
22653;BME280;11493;43.344;26.226;2022-08-03T06:41:50;99351.63;;;26.14;54.78
22653;BME280;11493;43.344;26.226;2022-08-03T06:44:17;99349.44;;;26.29;54.84
22653;BME280;11493;43.344;26.226;2022-08-03T06:46:44;99346.97;;;26.38;53.31
22653;BME280;11493;43.344;26.226;2022-08-03T06:49:11;99359.47;;;26.37;53.05
22653;BME280;11493;43.344;26.226;2022-08-03T06:51:39;99363.72;;;26.52;53.65
22653;BME280;11493;43.344;26.226;2022-08-03T06:54:27;99348.44;;;26.49;53.59
22653;BME280;11493;43.344;26.226;2022-08-03T06:56:59;99350.75;;;26.58;52.20
22653;BME280;11493;43.344;26.226;2022-08-03T06:59:26;99341.34;;;26.68;52.61
22653;BME280;11493;43.344;26.226;2022-08-03T07:02:14;99353.69;;;26.78;52.57
22653;BME280;11493;43.344;26.226;2022-08-03T07:04:49;99344.66;;;26.90;52.57
22653;BME280;11493;43.344;26.226;2022-08-03T07:07:16;99339.63;;;27.05;52.49
22653;BME280;11493;43.344;26.226;2022-08-03T07:09:45;99349.59;;;27.13;52.09
22653;BME280;11493;43.344;26.226;2022-08-03T07:12:28;99335.84;;;27.15;52.04
22653;BME280;11493;43.344;26.226;2022-08-03T07:14:57;99335.63;;;27.29;51.29
22653;BME280;11493;43.344;26.226;2022-08-03T07:17:32;99343.09;;;27.43;51.32
22653;BME280;11493;43.344;26.226;2022-08-03T07:20:01;99342.06;;;27.53;50.07
22653;BME280;11493;43.344;26.226;2022-08-03T07:22:29;99341.47;;;27.42;49.49
22653;BME280;11493;43.344;26.226;2022-08-03T07:24:57;99348.53;;;27.54;49.40
22653;BME280;11493;43.344;26.226;2022-08-03T07:27:25;99343.97;;;27.63;48.97
22653;BME280;11493;43.344;26.226;2022-08-03T07:29:57;99341.88;;;27.67;46.62
22653;BME280;11493;43.344;26.226;2022-08-03T07:32:25;99343.47;;;27.68;45.82
22653;BME280;11493;43.344;26.226;2022-08-03T07:34:52;99347.41;;;27.74;45.29
22653;BME280;11493;43.344;26.226;2022-08-03T07:37:27;99338.00;;;27.81;45.37
22653;BME280;11493;43.344;26.226;2022-08-03T07:39:54;99339.59;;;27.82;45.41
22653;BME280;11493;43.344;26.226;2022-08-03T07:42:22;99347.53;;;27.91;45.16
22653;BME280;11493;43.344;26.226;2022-08-03T07:44:50;99340.63;;;27.92;45.56
22653;BME280;11493;43.344;26.226;2022-08-03T07:47:28;99346.97;;;27.99;45.42
22653;BME280;11493;43.344;26.226;2022-08-03T07:50:03;99341.19;;;28.06;43.86
22653;BME280;11493;43.344;26.226;2022-08-03T07:52:30;99353.09;;;28.18;44.47
22653;BME280;11493;43.344;26.226;2022-08-03T07:55:21;99351.81;;;28.22;44.19
22653;BME280;11493;43.344;26.226;2022-08-03T07:58:10;99355.78;;;28.25;44.81
22653;BME280;11493;43.344;26.226;2022-08-03T08:00:49;99355.06;;;28.21;44.19
22653;BME280;11493;43.344;26.226;2022-08-03T08:03:19;99351.16;;;28.34;43.80
22653;BME280;11493;43.344;26.226;2022-08-03T08:05:48;99355.56;;;28.35;43.50
22653;BME280;11493;43.344;26.226;2022-08-03T08:08:15;99342.50;;;28.41;43.81
22653;BME280;11493;43.344;26.226;2022-08-03T08:10:42;99359.06;;;28.43;43.05
22653;BME280;11493;43.344;26.226;2022-08-03T08:13:24;99360.16;;;28.49;43.46
22653;BME280;11493;43.344;26.226;2022-08-03T08:15:51;99365.31;;;28.54;43.72
22653;BME280;11493;43.344;26.226;2022-08-03T08:18:19;99348.03;;;28.49;43.75
22653;BME280;11493;43.344;26.226;2022-08-03T08:20:46;99364.66;;;28.66;43.02
22653;BME280;11493;43.344;26.226;2022-08-03T08:23:14;99356.44;;;28.72;43.45
22653;BME280;11493;43.344;26.226;2022-08-03T08:26:01;99367.69;;;28.75;42.89
22653;BME280;11493;43.344;26.226;2022-08-03T08:28:28;99358.56;;;28.68;42.42
22653;BME280;11493;43.344;26.226;2022-08-03T08:31:00;99360.72;;;28.80;42.65
22653;BME280;11493;43.344;26.226;2022-08-03T08:33:27;99361.59;;;28.97;41.85
22653;BME280;11493;43.344;26.226;2022-08-03T08:36:15;99355.78;;;28.64;43.08
22653;BME280;11493;43.344;26.226;2022-08-03T08:38:42;99360.69;;;28.84;42.82
22653;BME280;11493;43.344;26.226;2022-08-03T08:41:12;99373.69;;;28.97;41.80
22653;BME280;11493;43.344;26.226;2022-08-03T08:43:41;99363.16;;;28.98;42.10
22653;BME280;11493;43.344;26.226;2022-08-03T08:46:12;99358.56;;;29.04;42.12
22653;BME280;11493;43.344;26.226;2022-08-03T08:48:52;99357.16;;;28.96;41.70
22653;BME280;11493;43.344;26.226;2022-08-03T08:51:21;99360.59;;;28.67;42.20
22653;BME280;11493;43.344;26.226;2022-08-03T08:53:51;99367.13;;;28.84;42.65
22653;BME280;11493;43.344;26.226;2022-08-03T08:56:22;99357.31;;;28.89;41.94
22653;BME280;11493;43.344;26.226;2022-08-03T08:58:53;99360.34;;;28.98;42.49
22653;BME280;11493;43.344;26.226;2022-08-03T09:01:24;99363.84;;;29.22;41.45
22653;BME280;11493;43.344;26.226;2022-08-03T09:03:51;99346.91;;;29.18;41.41
22653;BME280;11493;43.344;26.226;2022-08-03T09:06:21;99351.34;;;29.19;41.24
22653;BME280;11493;43.344;26.226;2022-08-03T09:08:48;99358.38;;;29.31;41.04
22653;BME280;11493;43.344;26.226;2022-08-03T09:11:20;99353.94;;;29.30;41.29
22653;BME280;11493;43.344;26.226;2022-08-03T09:14:10;99350.03;;;29.24;40.49
22653;BME280;11493;43.344;26.226;2022-08-03T09:16:59;99337.19;;;29.19;40.82
22653;BME280;11493;43.344;26.226;2022-08-03T09:19:30;99344.09;;;29.34;41.37
22653;BME280;11493;43.344;26.226;2022-08-03T09:22:18;99338.22;;;29.45;40.35
22653;BME280;11493;43.344;26.226;2022-08-03T09:24:57;99323.41;;;29.54;40.61
22653;BME280;11493;43.344;26.226;2022-08-03T09:27:45;99331.56;;;29.68;39.63
22653;BME280;11493;43.344;26.226;2022-08-03T09:30:17;99349.50;;;29.77;39.63
22653;BME280;11493;43.344;26.226;2022-08-03T09:33:02;99342.56;;;29.66;39.94
22653;BME280;11493;43.344;26.226;2022-08-03T09:35:30;99340.47;;;29.83;39.96
22653;BME280;11493;43.344;26.226;2022-08-03T09:38:20;99345.50;;;29.91;39.45
22653;BME280;11493;43.344;26.226;2022-08-03T09:40:50;99342.59;;;29.95;39.18
22653;BME280;11493;43.344;26.226;2022-08-03T09:43:24;99329.28;;;29.92;39.36
22653;BME280;11493;43.344;26.226;2022-08-03T09:46:02;99319.53;;;29.93;38.71
22653;BME280;11493;43.344;26.226;2022-08-03T09:48:31;99320.53;;;30.02;38.84
22653;BME280;11493;43.344;26.226;2022-08-03T09:51:03;99325.47;;;29.98;39.19
22653;BME280;11493;43.344;26.226;2022-08-03T09:53:50;99331.88;;;30.02;39.25
22653;BME280;11493;43.344;26.226;2022-08-03T09:59:09;99329.44;;;30.17;39.29
22653;BME280;11493;43.344;26.226;2022-08-03T10:01:38;99320.69;;;30.12;38.77
22653;BME280;11493;43.344;26.226;2022-08-03T10:04:12;99319.25;;;30.20;38.91
22653;BME280;11493;43.344;26.226;2022-08-03T10:06:44;99304.59;;;30.21;38.93
22653;BME280;11493;43.344;26.226;2022-08-03T10:09:14;99303.75;;;30.37;38.33
22653;BME280;11493;43.344;26.226;2022-08-03T10:11:43;99305.13;;;30.45;38.47
22653;BME280;11493;43.344;26.226;2022-08-03T10:14:13;99312.84;;;30.45;38.23
22653;BME280;11493;43.344;26.226;2022-08-03T10:16:49;99313.66;;;30.16;38.39
22653;BME280;11493;43.344;26.226;2022-08-03T10:19:16;99299.78;;;30.05;39.31
22653;BME280;11493;43.344;26.226;2022-08-03T10:21:50;99297.81;;;30.02;39.28
22653;BME280;11493;43.344;26.226;2022-08-03T10:24:24;99302.09;;;30.23;39.81
22653;BME280;11493;43.344;26.226;2022-08-03T10:26:56;99304.91;;;30.11;39.10
22653;BME280;11493;43.344;26.226;2022-08-03T10:29:27;99310.53;;;30.27;38.70
22653;BME280;11493;43.344;26.226;2022-08-03T10:31:57;99297.72;;;30.35;38.99
22653;BME280;11493;43.344;26.226;2022-08-03T10:34:26;99286.09;;;30.71;38.30
22653;BME280;11493;43.344;26.226;2022-08-03T10:36:57;99292.00;;;30.77;39.31
22653;BME280;11493;43.344;26.226;2022-08-03T10:39:26;99288.25;;;30.67;38.89
22653;BME280;11493;43.344;26.226;2022-08-03T10:41:55;99268.31;;;30.54;38.27
22653;BME280;11493;43.344;26.226;2022-08-03T10:44:32;99286.50;;;30.44;38.57
22653;BME280;11493;43.344;26.226;2022-08-03T10:47:03;99283.53;;;30.35;38.55
22653;BME280;11493;43.344;26.226;2022-08-03T10:49:32;99304.88;;;30.39;38.52
22653;BME280;11493;43.344;26.226;2022-08-03T10:52:03;99285.47;;;30.38;39.19
22653;BME280;11493;43.344;26.226;2022-08-03T10:54:51;99291.25;;;30.34;38.76
22653;BME280;11493;43.344;26.226;2022-08-03T10:57:55;99264.78;;;30.37;38.27
22653;BME280;11493;43.344;26.226;2022-08-03T11:00:27;99275.00;;;30.35;38.06
22653;BME280;11493;43.344;26.226;2022-08-03T11:03:09;99280.47;;;30.42;38.31
22653;BME280;11493;43.344;26.226;2022-08-03T11:05:47;99226.97;;;30.28;37.73
22653;BME280;11493;43.344;26.226;2022-08-03T11:08:33;99280.09;;;30.82;37.88
22653;BME280;11493;43.344;26.226;2022-08-03T11:14:10;99277.00;;;30.76;37.61
22653;BME280;11493;43.344;26.226;2022-08-03T11:16:44;99273.03;;;30.73;37.72
22653;BME280;11493;43.344;26.226;2022-08-03T11:19:17;99261.09;;;30.79;37.61
22653;BME280;11493;43.344;26.226;2022-08-03T11:21:54;99268.03;;;31.03;36.45
22653;BME280;11493;43.344;26.226;2022-08-03T11:27:20;99249.63;;;31.20;36.70
22653;BME280;11493;43.344;26.226;2022-08-03T11:40:35;99248.28;;;30.87;35.54
22653;BME280;11493;43.344;26.226;2022-08-03T11:43:05;99235.88;;;30.81;36.23
22653;BME280;11493;43.344;26.226;2022-08-03T11:45:35;99238.94;;;30.73;36.33
22653;BME280;11493;43.344;26.226;2022-08-03T11:48:13;99237.19;;;30.51;36.60
22653;BME280;11493;43.344;26.226;2022-08-03T11:50:42;99237.41;;;30.31;36.26
22653;BME280;11493;43.344;26.226;2022-08-03T11:53:15;99232.75;;;30.24;37.21
22653;BME280;11493;43.344;26.226;2022-08-03T11:55:44;99227.78;;;30.41;36.89
22653;BME280;11493;43.344;26.226;2022-08-03T11:58:20;99219.38;;;30.50;35.81
22653;BME280;11493;43.344;26.226;2022-08-03T12:01:08;99211.22;;;30.78;34.51
22653;BME280;11493;43.344;26.226;2022-08-03T12:03:37;99225.19;;;30.97;35.87
22653;BME280;11493;43.344;26.226;2022-08-03T12:06:09;99216.78;;;30.94;34.99
22653;BME280;11493;43.344;26.226;2022-08-03T12:08:37;99227.50;;;31.15;34.49
22653;BME280;11493;43.344;26.226;2022-08-03T12:11:06;99219.16;;;31.08;34.27
22653;BME280;11493;43.344;26.226;2022-08-03T12:13:45;99214.97;;;30.87;34.79
22653;BME280;11493;43.344;26.226;2022-08-03T12:16:36;99202.13;;;30.57;34.85
22653;BME280;11493;43.344;26.226;2022-08-03T12:19:04;99214.88;;;30.65;34.77
22653;BME280;11493;43.344;26.226;2022-08-03T12:21:38;99222.03;;;30.83;34.44
22653;BME280;11493;43.344;26.226;2022-08-03T12:24:23;99193.38;;;31.02;33.62
22653;BME280;11493;43.344;26.226;2022-08-03T12:26:54;99211.31;;;31.12;33.96
22653;BME280;11493;43.344;26.226;2022-08-03T12:29:26;99208.84;;;31.14;33.81
22653;BME280;11493;43.344;26.226;2022-08-03T12:31:53;99209.50;;;31.05;34.01
22653;BME280;11493;43.344;26.226;2022-08-03T12:34:22;99207.78;;;31.08;34.12
22653;BME280;11493;43.344;26.226;2022-08-03T12:36:54;99209.63;;;30.89;34.78
22653;BME280;11493;43.344;26.226;2022-08-03T12:39:26;99206.69;;;30.67;35.14
22653;BME280;11493;43.344;26.226;2022-08-03T12:41:57;99209.75;;;30.60;34.94
22653;BME280;11493;43.344;26.226;2022-08-03T12:44:33;99196.69;;;30.76;33.61
22653;BME280;11493;43.344;26.226;2022-08-03T12:47:02;99187.13;;;30.95;33.27
22653;BME280;11493;43.344;26.226;2022-08-03T12:49:47;99190.75;;;30.95;33.30
22653;BME280;11493;43.344;26.226;2022-08-03T12:52:16;99185.41;;;31.10;32.96
22653;BME280;11493;43.344;26.226;2022-08-03T12:54:58;99195.63;;;31.55;32.72
22653;BME280;11493;43.344;26.226;2022-08-03T12:57:40;99193.31;;;31.75;32.13
22653;BME280;11493;43.344;26.226;2022-08-03T13:00:20;99189.22;;;31.76;31.87
22653;BME280;11493;43.344;26.226;2022-08-03T13:03:05;99195.50;;;31.93;31.94
22653;BME280;11493;43.344;26.226;2022-08-03T13:05:53;99193.03;;;32.04;31.94
22653;BME280;11493;43.344;26.226;2022-08-03T13:08:22;99192.78;;;31.89;32.37
22653;BME280;11493;43.344;26.226;2022-08-03T13:10:50;99192.41;;;31.31;32.64
22653;BME280;11493;43.344;26.226;2022-08-03T13:13:18;99191.25;;;31.41;33.08
22653;BME280;11493;43.344;26.226;2022-08-03T13:15:46;99181.47;;;31.42;32.64
22653;BME280;11493;43.344;26.226;2022-08-03T13:18:14;99186.09;;;31.49;30.75
22653;BME280;11493;43.344;26.226;2022-08-03T13:20:43;99192.53;;;31.62;30.42
22653;BME280;11493;43.344;26.226;2022-08-03T13:23:10;99180.88;;;31.82;30.44
22653;BME280;11493;43.344;26.226;2022-08-03T13:25:48;99186.25;;;31.67;31.43
22653;BME280;11493;43.344;26.226;2022-08-03T13:28:22;99182.84;;;31.72;31.64
22653;BME280;11493;43.344;26.226;2022-08-03T13:30:49;99181.88;;;31.53;31.79
22653;BME280;11493;43.344;26.226;2022-08-03T13:33:17;99190.47;;;31.28;31.81
22653;BME280;11493;43.344;26.226;2022-08-03T13:35:45;99182.00;;;31.02;32.34
22653;BME280;11493;43.344;26.226;2022-08-03T13:38:12;99189.63;;;30.93;32.54
22653;BME280;11493;43.344;26.226;2022-08-03T13:40:43;99185.66;;;30.78;32.93